Time;durP1;ratioP1;P1;durP2;ratioP2;P2;SDS_P1;SDS_P2;PMS_P1;PMS_P2;Temp;Humidity;BMP_temperature;BMP_pressure;BME280_temperature;BME280_humidity;BME280_pressure;Samples;Min_cycle;Max_cycle;Signal;HPM_P1;HPM_P2
2023/05/27 00:00:44;;;;;;;;;;;;;;;19.39;66.58;97079.84;602516;235;66152;-62
2023/05/27 00:03:12;;;;;;;;;;;;;;;19.38;66.65;97072.92;602609;235;68814;-62
2023/05/27 00:05:40;;;;;;;;;;;;;;;19.37;66.62;97074.80;598075;235;65039;-62
2023/05/27 00:08:07;;;;;;;;;;;;;;;19.38;66.65;97078.25;599993;236;68998;-62
2023/05/27 00:10:35;;;;;;;;;;;;;;;19.38;66.65;97080.92;599959;235;68708;-62
2023/05/27 00:13:02;;;;;;;;;;;;;;;19.38;66.69;97080.92;599938;236;65052;-62
2023/05/27 00:15:30;;;;;;;;;;;;;;;19.38;66.75;97078.25;599922;236;66555;-62
2023/05/27 00:18:02;;;;;;;;;;;;;;;19.38;66.83;97072.92;599950;236;68783;-62
2023/05/27 00:20:32;;;;;;;;;;;;;;;19.37;66.78;97069.46;599843;236;63044;-62
2023/05/27 00:23:00;;;;;;;;;;;;;;;19.37;66.68;97068.64;602384;235;68866;-62
2023/05/27 00:25:27;;;;;;;;;;;;;;;19.38;66.73;97064.93;602429;235;68694;-62
2023/05/27 00:27:55;;;;;;;;;;;;;;;19.38;66.71;97064.93;602697;235;65048;-62
2023/05/27 00:30:23;;;;;;;;;;;;;;;19.37;66.76;97053.47;602242;235;68817;-62
2023/05/27 00:32:50;;;;;;;;;;;;;;;19.37;66.70;97048.14;602525;235;68642;-62
2023/05/27 00:35:17;;;;;;;;;;;;;;;19.36;66.76;97035.86;602315;235;64975;-61
2023/05/27 00:37:45;;;;;;;;;;;;;;;19.36;66.76;97027.07;601887;235;69460;-62
2023/05/27 00:40:14;;;;;;;;;;;;;;;19.37;66.78;97031.33;602132;235;66477;-62
2023/05/27 00:42:42;;;;;;;;;;;;;;;19.37;66.67;97031.33;602670;235;62982;-63
2023/05/27 00:45:10;;;;;;;;;;;;;;;19.37;66.76;97026.00;602654;235;66451;-62
2023/05/27 00:47:38;;;;;;;;;;;;;;;19.36;66.71;97017.20;602602;235;69510;-62
2023/05/27 00:50:07;;;;;;;;;;;;;;;19.36;66.73;97019.08;602600;235;65742;-62
2023/05/27 00:52:35;;;;;;;;;;;;;;;19.37;66.75;97018.00;602583;235;66447;-62
2023/05/27 00:55:02;;;;;;;;;;;;;;;19.36;66.70;97008.42;602593;235;69279;-62
2023/05/27 00:57:30;;;;;;;;;;;;;;;19.36;66.83;97005.75;602583;235;64882;-62
2023/05/27 00:59:58;;;;;;;;;;;;;;;19.36;66.79;97006.55;602648;235;68948;-62
2023/05/27 01:02:25;;;;;;;;;;;;;;;19.36;66.71;96997.76;602627;235;68643;-62
2023/05/27 01:04:53;;;;;;;;;;;;;;;19.37;66.67;96992.19;602591;235;65286;-61
2023/05/27 01:07:25;;;;;;;;;;;;;;;19.35;66.71;96986.30;602716;235;66085;-61
2023/05/27 01:09:59;;;;;;;;;;;;;;;19.36;66.71;96981.77;602552;235;68785;-60
2023/05/27 01:12:28;;;;;;;;;;;;;;;19.35;66.69;96980.17;602642;235;70842;-61
2023/05/27 01:14:57;;;;;;;;;;;;;;;19.35;66.66;96974.84;602660;235;68939;-60
2023/05/27 01:17:26;;;;;;;;;;;;;;;19.35;66.71;96969.52;602655;235;68467;-61
2023/05/27 01:19:54;;;;;;;;;;;;;;;19.36;66.76;96965.78;602629;235;62772;-60
2023/05/27 01:22:23;;;;;;;;;;;;;;;19.36;66.70;96955.13;602686;235;66431;-60
2023/05/27 01:24:51;;;;;;;;;;;;;;;19.36;66.65;96955.13;602475;235;68641;-61
2023/05/27 01:27:18;;;;;;;;;;;;;;;19.35;66.70;96948.20;602598;235;62930;-61
2023/05/27 01:29:46;;;;;;;;;;;;;;;19.35;66.68;96943.67;602558;235;66119;-61
2023/05/27 01:32:18;;;;;;;;;;;;;;;19.35;66.69;96938.34;602775;235;66943;-61
2023/05/27 01:34:56;;;;;;;;;;;;;;;19.36;66.64;96941.80;602232;235;62689;-62
2023/05/27 01:37:24;;;;;;;;;;;;;;;19.35;66.67;96941.00;602571;235;74529;-60
2023/05/27 01:39:52;;;;;;;;;;;;;;;19.35;66.71;96935.67;602692;235;67146;-61
2023/05/27 01:42:20;;;;;;;;;;;;;;;19.35;66.68;96945.53;602531;235;63535;-61
2023/05/27 01:44:48;;;;;;;;;;;;;;;19.36;66.69;96941.80;602580;235;68736;-61
2023/05/27 01:47:16;;;;;;;;;;;;;;;19.35;66.72;96932.21;602662;235;68551;-61
2023/05/27 01:49:43;;;;;;;;;;;;;;;19.35;66.70;96937.55;602654;235;63815;-61
2023/05/27 01:52:11;;;;;;;;;;;;;;;19.35;66.71;96940.20;602648;235;66462;-61
2023/05/27 01:54:38;;;;;;;;;;;;;;;19.34;66.67;96946.58;602667;235;68677;-62
2023/05/27 01:57:08;;;;;;;;;;;;;;;19.35;66.68;96945.53;602680;235;43197;-63
2023/05/27 01:59:35;;;;;;;;;;;;;;;19.34;66.73;96947.38;601964;235;68851;-62
2023/05/27 02:02:03;;;;;;;;;;;;;;;19.35;66.68;96950.87;601357;236;66414;-62
2023/05/27 02:04:30;;;;;;;;;;;;;;;19.34;66.65;96946.58;601343;236;62738;-62
2023/05/27 02:06:58;;;;;;;;;;;;;;;19.35;66.62;96948.20;601311;236;66365;-63
2023/05/27 02:09:26;;;;;;;;;;;;;;;19.34;66.62;96946.58;601317;236;69401;-62
2023/05/27 02:11:54;;;;;;;;;;;;;;;19.33;66.66;96929.80;601434;236;65740;-62
2023/05/27 02:14:21;;;;;;;;;;;;;;;19.34;66.60;96934.05;601417;236;68773;-62
2023/05/27 02:16:49;;;;;;;;;;;;;;;19.35;66.60;96937.55;601308;236;68891;-62
2023/05/27 02:19:17;;;;;;;;;;;;;;;19.34;66.54;96936.72;601261;236;62745;-62
2023/05/27 02:21:44;;;;;;;;;;;;;;;19.33;66.54;96935.13;601335;236;68831;-62
2023/05/27 02:24:12;;;;;;;;;;;;;;;19.35;66.60;96940.20;601380;236;69269;-62
2023/05/27 02:26:39;;;;;;;;;;;;;;;19.33;66.63;96929.80;601473;236;62767;-61
2023/05/27 02:29:08;;;;;;;;;;;;;;;19.34;66.60;96930.59;601213;236;69081;-60
2023/05/27 02:31:35;;;;;;;;;;;;;;;19.34;66.56;96941.25;601287;236;68636;-62
2023/05/27 02:34:05;;;;;;;;;;;;;;;19.34;66.53;96939.38;601372;235;42474;-62
2023/05/27 02:36:33;;;;;;;;;;;;;;;19.34;66.64;96941.25;601340;236;69103;-62
2023/05/27 02:39:01;;;;;;;;;;;;;;;19.34;66.62;96941.25;601443;236;69343;-62
2023/05/27 02:41:29;;;;;;;;;;;;;;;19.33;66.53;96934.33;601305;236;64993;-60
2023/05/27 02:43:57;;;;;;;;;;;;;;;19.34;66.65;96935.92;601303;236;68812;-60
2023/05/27 02:46:24;;;;;;;;;;;;;;;19.34;66.55;96946.58;601364;236;68718;-61
2023/05/27 02:48:52;;;;;;;;;;;;;;;19.33;66.60;96951.11;601321;236;62960;-61
2023/05/27 02:51:20;;;;;;;;;;;;;;;19.32;66.63;96949.52;601408;236;66513;-61
2023/05/27 02:53:47;;;;;;;;;;;;;;;19.33;66.58;96944.98;601292;236;68876;-60
2023/05/27 02:56:15;;;;;;;;;;;;;;;19.33;66.58;96953.78;601267;236;63651;-60
2023/05/27 02:58:42;;;;;;;;;;;;;;;19.33;66.63;96953.78;601252;236;68647;-60
2023/05/27 03:01:10;;;;;;;;;;;;;;;19.32;66.55;96949.52;601339;236;68668;-60
2023/05/27 03:03:37;;;;;;;;;;;;;;;19.32;66.55;96949.52;601364;236;62929;-61
2023/05/27 03:06:07;;;;;;;;;;;;;;;19.33;66.55;96943.13;601333;236;66163;-61
2023/05/27 03:08:36;;;;;;;;;;;;;;;19.33;66.55;96950.31;601296;236;68706;-60
2023/05/27 03:11:04;;;;;;;;;;;;;;;19.32;66.57;96954.86;601403;236;65085;-61
2023/05/27 03:13:31;;;;;;;;;;;;;;;19.32;66.55;96943.40;601395;236;68608;-60
2023/05/27 03:15:59;;;;;;;;;;;;;;;19.32;66.54;96946.86;600926;236;68408;-60
2023/05/27 03:18:27;;;;;;;;;;;;;;;19.32;66.52;96949.52;601388;236;65247;-60
2023/05/27 03:20:55;;;;;;;;;;;;;;;19.32;66.51;96951.39;600094;235;68761;-61
2023/05/27 03:23:22;;;;;;;;;;;;;;;19.31;66.49;96955.89;599563;236;66923;-60
2023/05/27 03:25:50;;;;;;;;;;;;;;;19.32;66.46;96962.84;599577;236;65211;-60
2023/05/27 03:28:18;;;;;;;;;;;;;;;19.32;66.53;96960.19;599624;236;66659;-60
2023/05/27 03:30:46;;;;;;;;;;;;;;;19.32;66.56;96956.72;599617;236;69157;-60
2023/05/27 03:33:15;;;;;;;;;;;;;;;19.32;66.51;96956.72;599293;236;41630;-61
2023/05/27 03:35:42;;;;;;;;;;;;;;;19.32;66.48;96962.05;599579;236;66312;-61
2023/05/27 03:38:10;;;;;;;;;;;;;;;19.32;66.45;96959.39;599596;236;68362;-61
2023/05/27 03:40:38;;;;;;;;;;;;;;;19.32;66.45;96956.72;599604;236;63805;-61
2023/05/27 03:43:07;;;;;;;;;;;;;;;19.31;66.47;96961.22;599680;236;45328;-61
2023/05/27 03:45:34;;;;;;;;;;;;;;;19.31;66.48;96958.56;599579;236;68542;-61
2023/05/27 03:48:02;;;;;;;;;;;;;;;19.32;66.41;96962.05;599511;236;65098;-61
2023/05/27 03:50:29;;;;;;;;;;;;;;;19.31;66.41;96961.22;599526;236;69212;-61
2023/05/27 03:52:57;;;;;;;;;;;;;;;19.31;66.41;96961.22;599563;236;68460;-61
2023/05/27 03:55:24;;;;;;;;;;;;;;;19.31;66.38;96958.56;599619;236;64962;-61
2023/05/27 03:57:52;;;;;;;;;;;;;;;19.30;66.38;96963.09;599587;236;68943;-61
2023/05/27 04:00:20;;;;;;;;;;;;;;;19.30;66.39;96968.42;603550;234;66494;-61
2023/05/27 04:02:49;;;;;;;;;;;;;;;19.31;66.42;96977.22;604148;235;39167;-62
2023/05/27 04:05:18;;;;;;;;;;;;;;;19.32;66.39;96975.37;604034;235;69385;-62
2023/05/27 04:07:45;;;;;;;;;;;;;;;19.30;66.42;96970.30;604078;235;66723;-62
2023/05/27 04:10:13;;;;;;;;;;;;;;;19.30;66.37;96972.95;604060;235;62926;-62
2023/05/27 04:12:41;;;;;;;;;;;;;;;19.29;66.35;96982.81;604006;235;66397;-62
2023/05/27 04:15:08;;;;;;;;;;;;;;;19.30;66.33;96981.75;604054;235;68568;-60
2023/05/27 04:17:36;;;;;;;;;;;;;;;19.29;66.37;96982.02;604029;235;65137;-60
2023/05/27 04:20:16;;;;;;;;;;;;;;;19.30;66.37;96978.28;603900;235;69565;-60
2023/05/27 04:22:48;;;;;;;;;;;;;;;19.31;66.32;96974.55;604002;235;45943;-60
2023/05/27 04:25:16;;;;;;;;;;;;;;;19.29;66.26;96968.70;604000;235;65100;-60
2023/05/27 04:28:04;;;;;;;;;;;;;;;19.30;66.30;96973.75;603764;234;46998;-60
2023/05/27 04:30:32;;;;;;;;;;;;;;;19.30;66.29;96981.75;598716;235;71654;-61
2023/05/27 04:33:00;;;;;;;;;;;;;;;19.29;66.30;96980.16;604045;234;62499;-60
2023/05/27 04:35:30;;;;;;;;;;;;;;;19.29;66.35;96979.36;604051;235;68760;-60
2023/05/27 04:38:01;;;;;;;;;;;;;;;19.28;66.37;96975.87;604065;235;69628;-60
2023/05/27 04:40:31;;;;;;;;;;;;;;;19.29;66.30;96971.36;603933;235;42122;-62
2023/05/27 04:43:05;;;;;;;;;;;;;;;19.28;66.29;96973.20;603617;235;47284;-61
2023/05/27 04:45:34;;;;;;;;;;;;;;;19.29;66.27;96976.69;604033;235;68747;-62
2023/05/27 04:48:01;;;;;;;;;;;;;;;19.28;66.27;96973.20;604040;235;64894;-62
2023/05/27 04:50:31;;;;;;;;;;;;;;;19.28;66.29;96981.20;604048;234;69320;-62
2023/05/27 04:52:58;;;;;;;;;;;;;;;19.29;66.30;96982.02;604085;235;66675;-62
2023/05/27 04:55:26;;;;;;;;;;;;;;;19.28;66.35;96978.53;604035;235;65036;-62
2023/05/27 04:57:53;;;;;;;;;;;;;;;19.28;66.28;96983.86;604073;235;68280;-62
2023/05/27 05:00:35;;;;;;;;;;;;;;;19.28;66.24;96981.20;602789;235;68807;-62
2023/05/27 05:03:00;;;;;;;;;;;;;;;19.28;66.25;96986.53;602160;235;62717;-63
2023/05/27 05:05:23;;;;;;;;;;;;;;;19.29;66.24;96987.35;602440;235;69132;-63
2023/05/27 05:07:51;;;;;;;;;;;;;;;19.28;66.23;96986.53;602634;235;66689;-63
2023/05/27 05:10:19;;;;;;;;;;;;;;;19.28;66.25;96994.52;602729;235;65918;-63
2023/05/27 05:12:49;;;;;;;;;;;;;;;19.27;66.27;96992.93;602356;235;49804;-63
2023/05/27 05:15:16;;;;;;;;;;;;;;;19.28;66.27;97001.72;602692;235;68543;-63
2023/05/27 05:17:44;;;;;;;;;;;;;;;19.28;66.27;97002.52;602701;235;65032;-63
2023/05/27 05:20:12;;;;;;;;;;;;;;;19.28;66.25;96999.84;602727;235;67062;-62
2023/05/27 05:22:41;;;;;;;;;;;;;;;19.27;66.22;97000.92;602708;235;66376;-62
2023/05/27 05:25:10;;;;;;;;;;;;;;;19.28;66.24;97007.05;602486;235;65013;-62
2023/05/27 05:27:39;;;;;;;;;;;;;;;19.28;66.23;97005.17;602575;235;50426;-61
2023/05/27 05:30:07;;;;;;;;;;;;;;;19.28;66.22;97007.05;602610;235;69366;-63
2023/05/27 05:32:35;;;;;;;;;;;;;;;19.28;66.22;97010.51;602755;235;64901;-60
2023/05/27 05:35:03;;;;;;;;;;;;;;;19.28;66.19;97004.38;602419;235;68481;-61
2023/05/27 05:37:31;;;;;;;;;;;;;;;19.28;66.17;97009.70;602442;235;65949;-62
2023/05/27 05:39:58;;;;;;;;;;;;;;;19.28;66.18;97015.84;602696;235;63630;-61
2023/05/27 05:42:26;;;;;;;;;;;;;;;19.27;66.17;97016.91;602282;235;68383;-62
2023/05/27 05:44:56;;;;;;;;;;;;;;;19.27;66.16;97022.23;602156;235;66015;-61
2023/05/27 05:47:24;;;;;;;;;;;;;;;19.27;66.17;97016.91;601910;235;65726;-61
2023/05/27 05:49:53;;;;;;;;;;;;;;;19.28;66.16;97025.70;602409;235;45757;-61
2023/05/27 05:52:21;;;;;;;;;;;;;;;19.28;66.14;97028.36;602542;235;66852;-62
2023/05/27 05:54:49;;;;;;;;;;;;;;;19.27;66.16;97030.23;602520;235;63023;-62
2023/05/27 05:57:16;;;;;;;;;;;;;;;19.27;66.15;97038.22;602595;235;68698;-62
2023/05/27 05:59:44;;;;;;;;;;;;;;;19.27;66.16;97032.09;601657;234;66171;-62
2023/05/27 06:02:12;;;;;;;;;;;;;;;19.27;66.16;97040.89;599775;235;63745;-62
2023/05/27 06:04:39;;;;;;;;;;;;;;;19.27;66.14;97038.22;599614;236;68800;-62
2023/05/27 06:07:07;;;;;;;;;;;;;;;19.26;66.12;97031.30;599580;236;66392;-62
2023/05/27 06:09:39;;;;;;;;;;;;;;;19.26;66.28;97043.80;598821;236;45057;-62
2023/05/27 06:12:08;;;;;;;;;;;;;;;19.24;66.36;97041.41;599606;236;46095;-62
2023/05/27 06:14:38;;;;;;;;;;;;;;;19.25;67.04;97044.87;599472;236;47340;-63
2023/05/27 06:17:06;;;;;;;;;;;;;;;19.25;66.82;97042.20;599583;236;65152;-61
2023/05/27 06:19:34;;;;;;;;;;;;;;;19.25;66.76;97050.99;594292;236;70362;-61
2023/05/27 06:22:04;;;;;;;;;;;;;;;19.26;66.85;97041.95;599594;236;67338;-63
2023/05/27 06:24:34;;;;;;;;;;;;;;;19.26;66.72;97041.95;599712;236;47380;-61
2023/05/27 06:27:03;;;;;;;;;;;;;;;19.27;66.59;97046.22;599363;236;46573;-63
2023/05/27 06:29:31;;;;;;;;;;;;;;;19.27;66.64;97043.55;599607;236;67317;-62
2023/05/27 06:31:59;;;;;;;;;;;;;;;19.28;66.64;97061.13;599577;236;65529;-62
2023/05/27 06:34:26;;;;;;;;;;;;;;;19.29;66.67;97056.63;599594;236;66128;-62
2023/05/27 06:36:54;;;;;;;;;;;;;;;19.29;66.73;97059.30;599587;236;68777;-63
2023/05/27 06:39:22;;;;;;;;;;;;;;;19.29;66.80;97057.42;599652;236;65185;-61
2023/05/27 06:41:50;;;;;;;;;;;;;;;19.29;66.80;97057.42;599562;236;66585;-61
2023/05/27 06:44:28;;;;;;;;;;;;;;;19.29;66.85;97062.75;599046;236;49621;-63
2023/05/27 06:46:57;;;;;;;;;;;;;;;19.31;66.86;97065.14;599524;236;43421;-62
2023/05/27 06:49:27;;;;;;;;;;;;;;;19.29;66.89;97052.09;599503;236;47617;-61
2023/05/27 06:51:54;;;;;;;;;;;;;;;19.31;66.80;97062.48;599628;236;69240;-61
2023/05/27 06:54:22;;;;;;;;;;;;;;;19.31;66.77;97062.48;599574;236;66402;-61
2023/05/27 06:56:50;;;;;;;;;;;;;;;19.31;66.85;97067.81;599608;236;66426;-61
2023/05/27 06:59:36;;;;;;;;;;;;;;;19.31;66.85;97067.81;601279;235;43200;-61
2023/05/27 07:02:04;;;;;;;;;;;;;;;19.31;66.82;97070.47;602731;235;65036;-61
2023/05/27 07:04:31;;;;;;;;;;;;;;;19.32;66.83;97068.64;602691;235;66649;-61
2023/05/27 07:07:01;;;;;;;;;;;;;;;19.30;66.84;97069.67;602751;235;47521;-61
2023/05/27 07:09:28;;;;;;;;;;;;;;;19.31;66.76;97070.47;602587;235;62746;-61
2023/05/27 07:11:56;;;;;;;;;;;;;;;19.32;66.72;97074.77;602663;235;68922;-62
2023/05/27 07:14:41;;;;;;;;;;;;;;;19.32;66.64;97076.63;602788;235;39352;-62
2023/05/27 07:17:09;;;;;;;;;;;;;;;19.31;66.68;97081.13;602416;235;65684;-62
2023/05/27 07:19:37;;;;;;;;;;;;;;;19.31;66.61;97078.47;602578;235;68893;-62
2023/05/27 07:22:06;;;;;;;;;;;;;;;19.32;66.60;97087.29;602698;235;45149;-61
2023/05/27 07:24:34;;;;;;;;;;;;;;;19.32;66.62;97087.29;602636;235;65139;-61
2023/05/27 07:27:01;;;;;;;;;;;;;;;19.32;66.59;97082.75;602685;235;69210;-61
2023/05/27 07:29:30;;;;;;;;;;;;;;;19.33;66.52;97088.88;602652;235;68673;-61
2023/05/27 07:32:15;;;;;;;;;;;;;;;19.32;66.47;97090.75;602674;235;39392;-62
2023/05/27 07:34:43;;;;;;;;;;;;;;;19.32;66.45;97088.08;602702;235;68929;-61
2023/05/27 07:37:11;;;;;;;;;;;;;;;19.33;66.47;97094.21;602608;235;66599;-61
2023/05/27 07:39:38;;;;;;;;;;;;;;;19.33;66.53;97092.34;602597;235;63050;-61
2023/05/27 07:42:06;;;;;;;;;;;;;;;19.33;66.49;97095.01;602533;235;68814;-61
2023/05/27 07:44:34;;;;;;;;;;;;;;;19.33;66.44;97102.20;602647;235;68668;-61
2023/05/27 07:47:03;;;;;;;;;;;;;;;19.33;66.39;97099.55;602650;235;62968;-61
2023/05/27 07:49:30;;;;;;;;;;;;;;;19.34;66.38;97107.26;602645;235;68862;-61
2023/05/27 07:52:08;;;;;;;;;;;;;;;19.33;66.37;97099.55;601975;234;45597;-61
2023/05/27 07:54:36;;;;;;;;;;;;;;;19.33;66.40;97095.01;602556;235;63836;-62
2023/05/27 07:57:06;;;;;;;;;;;;;;;19.33;66.35;97100.34;602648;235;66666;-61
2023/05/27 07:59:33;;;;;;;;;;;;;;;19.34;66.35;97107.26;602578;235;68602;-62
2023/05/27 08:02:01;;;;;;;;;;;;;;;19.34;66.31;97106.47;602392;235;65244;-61
2023/05/27 08:04:28;;;;;;;;;;;;;;;19.34;66.33;97106.47;602550;235;68687;-61
2023/05/27 08:07:06;;;;;;;;;;;;;;;19.34;66.28;97106.47;601938;235;48472;-61
2023/05/27 08:09:39;;;;;;;;;;;;;;;19.34;66.28;97109.12;599028;235;46307;-62
2023/05/27 08:12:25;;;;;;;;;;;;;;;19.35;66.30;97108.09;602742;235;43710;-62
2023/05/27 08:15:00;;;;;;;;;;;;;;;19.35;66.25;97114.21;595563;235;49555;-61
2023/05/27 08:17:30;;;;;;;;;;;;;;;19.35;66.34;97108.09;593807;235;46432;-62
2023/05/27 08:20:12;;;;;;;;;;;;;;;19.34;66.33;97112.59;602783;235;49536;-61
2023/05/27 08:22:45;;;;;;;;;;;;;;;19.34;66.29;97120.58;596781;235;50113;-61
2023/05/27 08:25:24;;;;;;;;;;;;;;;19.35;66.32;97113.42;588873;240;47361;-61
2023/05/27 08:28:02;;;;;;;;;;;;;;;19.34;66.35;97111.80;581629;241;50935;-61
2023/05/27 08:30:34;;;;;;;;;;;;;;;19.34;66.41;97109.92;594465;238;50875;-61
2023/05/27 08:33:04;;;;;;;;;;;;;;;19.34;66.41;97104.59;594780;238;45140;-61
2023/05/27 08:35:32;;;;;;;;;;;;;;;19.34;66.33;97104.59;594895;238;69579;-61
2023/05/27 08:38:00;;;;;;;;;;;;;;;19.34;66.35;97103.80;594948;238;66414;-61
2023/05/27 08:40:29;;;;;;;;;;;;;;;19.35;66.39;97100.09;595028;238;44988;-63
2023/05/27 08:42:57;;;;;;;;;;;;;;;19.35;66.39;97102.76;594928;238;66644;-62
2023/05/27 08:45:25;;;;;;;;;;;;;;;19.35;66.36;97105.42;595026;238;68564;-62
2023/05/27 08:47:54;;;;;;;;;;;;;;;19.35;66.39;97097.43;595092;238;65061;-62
2023/05/27 08:50:23;;;;;;;;;;;;;;;19.35;66.40;97098.22;594685;238;46055;-62
2023/05/27 08:52:52;;;;;;;;;;;;;;;19.35;66.33;97100.09;595000;238;68853;-62
2023/05/27 08:55:21;;;;;;;;;;;;;;;19.36;66.32;97099.02;595140;238;64949;-63
2023/05/27 08:57:51;;;;;;;;;;;;;;;19.36;66.34;97101.69;595157;238;68770;-61
2023/05/27 09:00:19;;;;;;;;;;;;;;;19.36;66.26;97101.69;592245;238;68702;-62
2023/05/27 09:02:47;;;;;;;;;;;;;;;19.36;66.26;97102.48;592459;237;65774;-61
2023/05/27 09:05:16;;;;;;;;;;;;;;;19.36;66.26;97096.36;592174;239;68861;-61
2023/05/27 09:07:44;;;;;;;;;;;;;;;19.35;66.26;97094.77;592256;238;68573;-61
2023/05/27 09:10:11;;;;;;;;;;;;;;;19.37;66.22;97100.61;592171;239;64847;-61
2023/05/27 09:12:40;;;;;;;;;;;;;;;19.36;66.22;97089.16;592114;238;68648;-61
2023/05/27 09:15:10;;;;;;;;;;;;;;;19.36;66.19;97099.02;592102;239;67548;-62
2023/05/27 09:17:42;;;;;;;;;;;;;;;19.36;66.18;97094.48;592156;239;65063;-63
2023/05/27 09:20:10;;;;;;;;;;;;;;;19.37;66.16;97089.95;591862;238;68766;-62
2023/05/27 09:22:39;;;;;;;;;;;;;;;19.36;66.21;97081.16;592307;238;68764;-61
2023/05/27 09:25:07;;;;;;;;;;;;;;;19.36;66.24;97083.83;592134;238;64898;-61
2023/05/27 09:27:35;;;;;;;;;;;;;;;19.36;66.25;97086.50;592170;239;68884;-62
2023/05/27 09:30:09;;;;;;;;;;;;;;;19.36;66.23;97086.50;592206;238;65901;-61
2023/05/27 09:32:36;;;;;;;;;;;;;;;19.37;66.21;97080.13;592095;239;65137;-61
2023/05/27 09:35:07;;;;;;;;;;;;;;;19.36;66.21;97078.50;592091;239;68360;-62
2023/05/27 09:37:35;;;;;;;;;;;;;;;19.37;66.18;97080.13;592392;238;66680;-62
2023/05/27 09:40:10;;;;;;;;;;;;;;;19.37;66.14;97079.30;592332;238;64887;-61
2023/05/27 09:42:47;;;;;;;;;;;;;;;19.37;66.18;97079.30;592221;238;68577;-62
2023/05/27 09:45:17;;;;;;;;;;;;;;;19.38;66.12;97072.92;592389;238;68508;-61
2023/05/27 09:47:54;;;;;;;;;;;;;;;19.37;66.10;97079.30;591943;238;64954;-62
2023/05/27 09:50:22;;;;;;;;;;;;;;;19.37;66.06;97076.63;592801;237;66407;-62
2023/05/27 09:52:50;;;;;;;;;;;;;;;19.37;66.08;97072.13;592128;239;66489;-62
2023/05/27 09:55:17;;;;;;;;;;;;;;;19.37;66.07;97073.97;592561;238;65048;-61
2023/05/27 09:57:45;;;;;;;;;;;;;;;19.37;66.12;97061.47;592242;238;68243;-61
2023/05/27 10:00:15;;;;;;;;;;;;;;;19.37;66.08;97058.80;594719;237;66401;-61
2023/05/27 10:02:44;;;;;;;;;;;;;;;19.38;66.06;97059.60;595070;238;62992;-63
2023/05/27 10:05:13;;;;;;;;;;;;;;;19.37;66.03;97056.14;595264;238;69054;-61
2023/05/27 10:07:42;;;;;;;;;;;;;;;19.37;66.03;97057.98;595044;238;68760;-62
2023/05/27 10:10:11;;;;;;;;;;;;;;;19.38;66.11;97056.94;595234;238;63903;-61
2023/05/27 10:12:39;;;;;;;;;;;;;;;19.38;66.03;97054.27;595144;238;68804;-61
2023/05/27 10:15:08;;;;;;;;;;;;;;;19.37;66.00;97048.14;595257;238;66410;-61
2023/05/27 10:17:48;;;;;;;;;;;;;;;19.39;66.02;97050.53;595155;238;63683;-61
2023/05/27 10:20:27;;;;;;;;;;;;;;;19.38;66.01;97043.61;595096;238;68809;-62
2023/05/27 10:22:54;;;;;;;;;;;;;;;19.38;65.97;97043.61;594990;237;68576;-61
2023/05/27 10:25:22;;;;;;;;;;;;;;;19.38;66.00;97036.41;594733;238;64983;-61
2023/05/27 10:27:49;;;;;;;;;;;;;;;19.37;65.96;97029.48;594404;238;68642;-61
2023/05/27 10:30:17;;;;;;;;;;;;;;;19.39;65.96;97039.88;594661;238;68244;-61
2023/05/27 10:32:46;;;;;;;;;;;;;;;19.39;65.96;97029.22;594844;238;64924;-61
2023/05/27 10:35:14;;;;;;;;;;;;;;;19.38;65.96;97023.09;594276;238;68701;-61
2023/05/27 10:37:42;;;;;;;;;;;;;;;19.39;66.00;97015.89;595006;238;68505;-61
2023/05/27 10:40:11;;;;;;;;;;;;;;;19.39;65.94;97024.68;594715;238;63070;-62
2023/05/27 10:42:39;;;;;;;;;;;;;;;19.39;65.93;97015.89;595162;238;66730;-62
2023/05/27 10:45:08;;;;;;;;;;;;;;;19.39;65.95;97014.02;595194;238;68134;-61
2023/05/27 10:47:39;;;;;;;;;;;;;;;19.40;65.95;97004.19;595106;238;63806;-63
2023/05/27 10:50:13;;;;;;;;;;;;;;;19.39;65.95;97000.70;594935;238;68830;-63
2023/05/27 10:52:42;;;;;;;;;;;;;;;19.40;65.93;96996.19;594882;238;69026;-62
2023/05/27 10:55:09;;;;;;;;;;;;;;;19.39;65.93;96998.03;595087;238;62859;-62
2023/05/27 10:57:37;;;;;;;;;;;;;;;19.39;65.91;96991.91;595073;238;66429;-62
2023/05/27 11:00:09;;;;;;;;;;;;;;;19.38;65.87;96993.77;592670;238;66443;-62
2023/05/27 11:02:38;;;;;;;;;;;;;;;19.40;65.88;96988.20;592070;239;65106;-62
2023/05/27 11:05:07;;;;;;;;;;;;;;;19.40;65.90;96988.20;592174;238;68725;-62
2023/05/27 11:07:36;;;;;;;;;;;;;;;19.41;65.93;96992.45;592202;238;68586;-62
2023/05/27 11:10:05;;;;;;;;;;;;;;;19.40;65.92;96983.66;592133;239;65000;-62
2023/05/27 11:12:32;;;;;;;;;;;;;;;19.40;65.93;96986.33;592055;239;68468;-62
2023/05/27 11:15:00;;;;;;;;;;;;;;;19.40;65.94;96981.00;592139;239;66417;-62
2023/05/27 11:17:28;;;;;;;;;;;;;;;19.40;65.94;96980.20;592092;238;62761;-62
2023/05/27 11:19:56;;;;;;;;;;;;;;;19.41;65.95;96976.47;592167;239;68897;-62
2023/05/27 11:22:23;;;;;;;;;;;;;;;19.41;65.97;96979.12;592218;238;66668;-62
2023/05/27 11:25:01;;;;;;;;;;;;;;;19.41;65.94;96971.13;592114;239;62753;-62
2023/05/27 11:27:35;;;;;;;;;;;;;;;19.41;65.97;96963.94;592112;239;68837;-62
2023/05/27 11:30:12;;;;;;;;;;;;;;;19.41;65.95;96955.14;592120;239;68706;-62
2023/05/27 11:32:43;;;;;;;;;;;;;;;19.41;65.94;96963.94;592281;238;62890;-62
2023/05/27 11:35:12;;;;;;;;;;;;;;;19.41;65.92;96957.81;590343;238;68799;-62
2023/05/27 11:37:40;;;;;;;;;;;;;;;19.42;65.96;96957.53;591850;238;68766;-62
2023/05/27 11:40:09;;;;;;;;;;;;;;;19.41;65.95;96947.95;592165;239;62780;-62
2023/05/27 11:42:37;;;;;;;;;;;;;;;19.42;65.92;96951.41;592173;238;68982;-62
2023/05/27 11:45:06;;;;;;;;;;;;;;;19.42;65.91;96948.73;592195;237;68568;-63
2023/05/27 11:47:34;;;;;;;;;;;;;;;19.43;65.95;96947.70;592076;239;62757;-63
2023/05/27 11:50:03;;;;;;;;;;;;;;;19.42;65.94;96938.08;592170;238;68823;-63
2023/05/27 11:52:33;;;;;;;;;;;;;;;19.42;65.98;96940.74;592123;239;66686;-63
2023/05/27 11:55:00;;;;;;;;;;;;;;;19.42;65.98;96930.08;592137;239;63811;-63
2023/05/27 11:57:30;;;;;;;;;;;;;;;19.43;65.98;96924.50;592531;238;68650;-63
2023/05/27 11:59:57;;;;;;;;;;;;;;;19.42;65.97;96922.88;594333;237;68252;-62
2023/05/27 12:02:24;;;;;;;;;;;;;;;19.43;65.97;96918.38;595094;238;62669;-62
2023/05/27 12:04:52;;;;;;;;;;;;;;;19.43;66.01;96913.05;595071;238;68476;-62
2023/05/27 12:07:19;;;;;;;;;;;;;;;19.43;65.98;96905.05;594910;238;68848;-63
2023/05/27 12:09:48;;;;;;;;;;;;;;;19.43;66.06;96905.84;595252;238;62979;-63
2023/05/27 12:12:16;;;;;;;;;;;;;;;19.44;66.06;96906.64;594915;238;68653;-63
2023/05/27 12:14:44;;;;;;;;;;;;;;;19.44;66.06;96903.98;590100;238;68704;-63
2023/05/27 12:17:11;;;;;;;;;;;;;;;19.44;66.05;96890.66;595118;238;65120;-63
2023/05/27 12:19:39;;;;;;;;;;;;;;;19.44;66.11;96883.45;595121;238;68766;-63
2023/05/27 12:22:06;;;;;;;;;;;;;;;19.44;66.11;96888.78;595082;238;68625;-63
2023/05/27 12:24:34;;;;;;;;;;;;;;;19.44;66.15;96878.13;595140;238;62816;-63
2023/05/27 12:27:02;;;;;;;;;;;;;;;19.44;66.12;96875.45;595072;238;68319;-63
2023/05/27 12:29:30;;;;;;;;;;;;;;;19.44;66.11;96870.13;595018;238;69166;-63
2023/05/27 12:31:57;;;;;;;;;;;;;;;19.44;66.14;96862.13;594954;238;64977;-63
2023/05/27 12:34:25;;;;;;;;;;;;;;;19.44;66.04;96850.68;595152;238;68923;-63
2023/05/27 12:36:53;;;;;;;;;;;;;;;19.45;66.08;96850.42;594982;238;66518;-63
2023/05/27 12:39:21;;;;;;;;;;;;;;;19.45;66.02;96850.42;595143;238;63559;-63
2023/05/27 12:41:48;;;;;;;;;;;;;;;19.45;66.05;96850.42;595256;238;68630;-63
2023/05/27 12:44:18;;;;;;;;;;;;;;;19.45;66.11;96830.95;595244;238;68725;-63
2023/05/27 12:46:45;;;;;;;;;;;;;;;19.45;66.10;96837.10;595025;238;63066;-63
2023/05/27 12:49:12;;;;;;;;;;;;;;;19.46;66.11;96835.23;592526;237;66330;-63
2023/05/27 12:51:40;;;;;;;;;;;;;;;19.46;66.17;96827.23;591441;238;68689;-63
2023/05/27 12:54:08;;;;;;;;;;;;;;;19.45;66.19;96821.11;595220;238;62847;-63
2023/05/27 12:56:36;;;;;;;;;;;;;;;19.45;66.07;96826.44;595120;238;68776;-63